createdAt,value
2019-03-13T00:00:39.853Z,3.74
2019-03-13T00:03:11.055Z,3.74
2019-03-13T00:05:41.923Z,3.80
2019-03-13T00:08:12.698Z,3.82
2019-03-13T00:10:43.748Z,3.84
2019-03-13T00:13:14.931Z,3.83
2019-03-13T00:15:49.472Z,3.85
2019-03-13T00:18:19.189Z,3.85
2019-03-13T00:20:49.991Z,3.85
2019-03-13T00:23:20.816Z,3.86
2019-03-13T00:25:51.800Z,3.88
2019-03-13T00:28:22.853Z,3.89
2019-03-13T00:30:55.246Z,3.88
2019-03-13T00:33:25.860Z,3.89
2019-03-13T00:35:56.673Z,3.91
2019-03-13T00:38:27.145Z,3.91
2019-03-13T00:40:58.382Z,3.91
2019-03-13T00:43:29.220Z,3.90
2019-03-13T00:46:00.924Z,3.90
2019-03-13T00:48:31.853Z,3.90
2019-03-13T00:51:02.617Z,3.87
2019-03-13T00:53:33.472Z,3.83
2019-03-13T00:56:04.435Z,3.81
2019-03-13T00:58:35.723Z,3.77
2019-03-13T01:01:08.358Z,3.76
2019-03-13T01:03:40.374Z,3.77
2019-03-13T01:06:12.644Z,3.76
2019-03-13T01:08:43.605Z,3.77
2019-03-13T01:11:14.720Z,3.73
2019-03-13T01:13:45.527Z,3.71
2019-03-13T01:16:16.400Z,3.71
2019-03-13T01:18:47.538Z,3.70
2019-03-13T01:21:18.331Z,3.70
2019-03-13T01:23:49.072Z,3.71
2019-03-13T01:26:20.197Z,3.71
2019-03-13T01:28:51.559Z,3.69
2019-03-13T01:31:24.441Z,3.72
2019-03-13T01:33:56.749Z,3.74
2019-03-13T01:36:27.388Z,3.75
2019-03-13T01:38:58.399Z,3.78
2019-03-13T01:41:29.568Z,3.81
2019-03-13T01:44:03.524Z,3.83
2019-03-13T01:46:34.760Z,3.86
2019-03-13T01:49:05.645Z,3.86
2019-03-13T01:51:36.516Z,3.92
2019-03-13T01:54:07.318Z,3.92
2019-03-13T01:56:38.699Z,3.90
2019-03-13T01:59:09.717Z,3.89
2019-03-13T02:01:40.787Z,3.94
2019-03-13T02:04:11.752Z,3.94
2019-03-13T02:06:42.820Z,3.98
2019-03-13T02:09:13.920Z,3.97
2019-03-13T02:11:44.959Z,3.98
2019-03-13T02:14:16.929Z,4.01
2019-03-13T02:16:48.002Z,4.01
2019-03-13T02:19:18.842Z,4.05
2019-03-13T02:21:49.655Z,4.07
2019-03-13T02:24:20.519Z,4.08
2019-03-13T02:26:51.514Z,4.07
2019-03-13T02:29:22.593Z,4.08
2019-03-13T02:31:53.379Z,4.08
2019-03-13T02:34:24.100Z,4.10
2019-03-13T02:36:55.272Z,4.13
2019-03-13T02:39:26.465Z,4.17
2019-03-13T02:41:57.302Z,4.16
2019-03-13T02:44:28.266Z,4.16
2019-03-13T02:46:59.277Z,4.16
2019-03-13T02:49:30.494Z,4.18
2019-03-13T02:52:01.669Z,4.16
2019-03-13T02:54:32.514Z,4.15
2019-03-13T02:57:03.823Z,4.18
2019-03-13T02:59:34.816Z,4.16
2019-03-13T03:02:07.166Z,4.17
2019-03-13T03:04:38.415Z,4.19
2019-03-13T03:07:12.714Z,4.19
2019-03-13T03:09:42.015Z,4.25
2019-03-13T03:12:12.826Z,4.27
2019-03-13T03:14:47.220Z,4.27
2019-03-13T03:17:18.112Z,4.28
2019-03-13T03:19:48.828Z,4.28
2019-03-13T03:22:19.817Z,4.28
2019-03-13T03:24:51.046Z,4.30
2019-03-13T03:27:21.904Z,4.31
2019-03-13T03:29:52.724Z,4.31
2019-03-13T03:32:23.883Z,4.31
2019-03-13T03:34:54.941Z,4.35
2019-03-13T03:37:25.920Z,4.36
2019-03-13T03:39:56.769Z,4.36
2019-03-13T03:42:27.854Z,4.35
2019-03-13T03:44:58.682Z,4.37
2019-03-13T03:47:29.799Z,4.39
2019-03-13T03:50:00.812Z,4.42
2019-03-13T03:52:31.523Z,4.42
2019-03-13T03:55:02.722Z,4.41
2019-03-13T03:57:33.881Z,4.40
2019-03-13T04:00:07.813Z,4.42
2019-03-13T04:02:38.922Z,4.41
2019-03-13T04:05:10.156Z,4.44
2019-03-13T04:07:41.208Z,4.41
2019-03-13T04:10:13.327Z,4.45
2019-03-13T04:12:44.103Z,4.46
2019-03-13T04:15:15.931Z,4.44
2019-03-13T04:17:46.688Z,4.50
2019-03-13T04:20:18.437Z,4.51
2019-03-13T04:22:49.448Z,4.52
2019-03-13T04:25:19.959Z,4.54
2019-03-13T04:27:50.886Z,4.56
2019-03-13T04:30:21.749Z,4.56
2019-03-13T04:32:52.716Z,4.57
2019-03-13T04:35:24.542Z,4.62
2019-03-13T04:37:55.678Z,4.66
2019-03-13T04:40:26.656Z,4.71
2019-03-13T04:42:58.136Z,4.77
2019-03-13T04:45:29.792Z,4.79
2019-03-13T04:48:01.061Z,4.84
2019-03-13T04:50:31.917Z,4.88
2019-03-13T04:53:02.860Z,4.91
2019-03-13T04:55:34.137Z,4.92
2019-03-13T04:58:05.687Z,4.94
2019-03-13T05:00:36.493Z,4.95
2019-03-13T05:03:07.973Z,4.97
2019-03-13T05:05:41.941Z,4.99
2019-03-13T05:08:17.561Z,4.97
2019-03-13T05:10:48.696Z,4.97
2019-03-13T05:13:19.956Z,4.97
2019-03-13T05:15:54.563Z,4.98
2019-03-13T05:18:25.418Z,4.98
2019-03-13T05:20:56.323Z,5.01
2019-03-13T05:23:28.096Z,5.01
2019-03-13T05:25:59.105Z,5.01
2019-03-13T05:28:30.027Z,4.99
2019-03-13T05:31:01.095Z,4.99
2019-03-13T05:33:32.226Z,4.95
2019-03-13T05:36:03.111Z,4.94
2019-03-13T05:38:34.036Z,4.93
2019-03-13T05:41:04.776Z,4.88
2019-03-13T05:43:35.595Z,4.84
2019-03-13T05:46:07.182Z,4.78
2019-03-13T05:48:38.130Z,4.68
2019-03-13T05:51:09.266Z,4.61
2019-03-13T05:53:40.096Z,4.52
2019-03-13T05:56:11.536Z,4.51
2019-03-13T05:58:42.920Z,4.41
2019-03-13T06:01:13.735Z,4.36
2019-03-13T06:03:44.990Z,4.39
2019-03-13T06:06:16.125Z,4.32
2019-03-13T06:08:47.654Z,4.30
2019-03-13T06:11:18.856Z,4.32
2019-03-13T06:13:50.107Z,4.32
2019-03-13T06:16:20.786Z,4.34
2019-03-13T06:18:52.886Z,4.33
2019-03-13T06:21:24.230Z,4.34
2019-03-13T06:23:55.207Z,4.35
2019-03-13T06:26:26.060Z,4.29
2019-03-13T06:28:57.221Z,4.30
2019-03-13T06:31:28.268Z,4.28
2019-03-13T06:33:59.582Z,4.32
2019-03-13T06:36:30.363Z,4.33
2019-03-13T06:39:01.732Z,4.37
2019-03-13T06:41:33.383Z,4.34
2019-03-13T06:44:04.584Z,4.32
2019-03-13T06:46:35.808Z,4.34
2019-03-13T06:49:06.861Z,4.34
2019-03-13T06:51:38.809Z,4.33
2019-03-13T06:54:09.784Z,4.35
2019-03-13T06:56:40.698Z,4.34
2019-03-13T06:59:13.763Z,4.34
2019-03-13T07:01:47.073Z,4.35
2019-03-13T07:04:21.194Z,4.38
2019-03-13T07:06:54.054Z,4.40
2019-03-13T07:09:26.368Z,4.38
2019-03-13T07:11:58.741Z,4.38
2019-03-13T07:14:31.117Z,4.36
2019-03-13T07:17:03.715Z,4.41
2019-03-13T07:19:36.900Z,4.41
2019-03-13T07:22:09.725Z,4.45
2019-03-13T07:24:42.422Z,4.47
2019-03-13T07:27:16.414Z,4.48
2019-03-13T07:29:47.379Z,4.48
2019-03-13T07:32:20.317Z,4.51
2019-03-13T07:34:54.764Z,4.50
2019-03-13T07:37:27.977Z,4.52
2019-03-13T07:40:00.395Z,4.52
2019-03-13T07:42:32.947Z,4.58
2019-03-13T07:45:08.133Z,4.66
2019-03-13T07:47:40.535Z,4.74
2019-03-13T07:50:12.542Z,4.85
2019-03-13T07:52:45.144Z,4.97
2019-03-13T07:55:16.002Z,5.04
2019-03-13T07:57:46.477Z,5.07
2019-03-13T08:00:18.776Z,5.17
2019-03-13T08:02:50.869Z,5.26
2019-03-13T08:05:23.438Z,5.37
2019-03-13T08:07:55.601Z,5.54
2019-03-13T08:10:28.191Z,5.64
2019-03-13T08:13:00.320Z,5.74
2019-03-13T08:15:30.618Z,5.72
2019-03-13T08:18:02.819Z,5.80
2019-03-13T08:20:33.345Z,5.88
2019-03-13T08:23:05.418Z,5.95
2019-03-13T08:25:37.459Z,6.01
2019-03-13T08:28:09.479Z,6.09
2019-03-13T08:30:41.648Z,6.21
2019-03-13T08:33:13.891Z,6.33
2019-03-13T08:35:46.238Z,6.41
2019-03-13T08:38:18.498Z,6.53
2019-03-13T08:40:50.499Z,6.67
2019-03-13T08:43:22.770Z,6.79
2019-03-13T08:45:54.879Z,6.96
2019-03-13T08:48:27.008Z,6.96
2019-03-13T08:50:59.148Z,6.84
2019-03-13T08:53:32.654Z,6.75
2019-03-13T08:56:06.138Z,6.71
2019-03-13T08:58:38.134Z,6.70
2019-03-13T09:01:10.279Z,6.81
2019-03-13T09:03:42.380Z,7.02
2019-03-13T09:06:14.719Z,7.07
2019-03-13T09:08:44.884Z,7.21
2019-03-13T09:11:17.102Z,7.26
2019-03-13T09:13:49.265Z,7.38
2019-03-13T09:16:21.461Z,7.43
2019-03-13T09:18:54.941Z,7.50
2019-03-13T09:21:27.332Z,7.34
2019-03-13T09:23:59.495Z,7.26
2019-03-13T09:26:32.062Z,7.34
2019-03-13T09:29:04.672Z,7.37
2019-03-13T09:31:37.300Z,7.25
2019-03-13T09:34:10.690Z,7.34
2019-03-13T09:36:43.550Z,7.32
2019-03-13T09:39:14.284Z,7.22
2019-03-13T09:41:47.517Z,7.21
2019-03-13T09:44:20.868Z,7.28
2019-03-13T09:46:53.518Z,7.33
2019-03-13T09:49:26.055Z,7.33
2019-03-13T09:51:58.700Z,7.39
2019-03-13T09:54:31.334Z,7.57
2019-03-13T09:57:04.020Z,7.57
2019-03-13T09:59:43.383Z,7.46
2019-03-13T10:02:11.520Z,7.55
2019-03-13T10:04:44.166Z,7.44
2019-03-13T10:07:16.928Z,7.38
2019-03-13T10:09:49.492Z,7.39
2019-03-13T10:12:22.187Z,7.44
2019-03-13T10:14:55.146Z,7.66
2019-03-13T10:17:27.753Z,7.66
2019-03-13T10:20:00.970Z,7.74
2019-03-13T10:22:33.614Z,7.73
2019-03-13T10:25:07.742Z,7.74
2019-03-13T10:27:40.869Z,7.78
2019-03-13T10:30:15.608Z,7.73
2019-03-13T10:32:48.551Z,7.81
2019-03-13T10:35:21.415Z,7.95
2019-03-13T10:37:54.745Z,8.22
2019-03-13T10:40:28.515Z,8.19
2019-03-13T10:43:01.856Z,8.39
2019-03-13T10:45:32.827Z,8.58
2019-03-13T10:48:05.582Z,8.65
2019-03-13T10:50:38.400Z,8.52
2019-03-13T10:53:11.352Z,8.63
2019-03-13T10:55:43.919Z,8.54
2019-03-13T10:58:16.431Z,8.52
2019-03-13T11:00:48.906Z,8.56
2019-03-13T11:03:21.553Z,8.59
2019-03-13T11:05:54.130Z,8.66
2019-03-13T11:08:26.724Z,9.04
2019-03-13T11:10:59.348Z,9.39
2019-03-13T11:13:31.896Z,9.57
2019-03-13T11:16:04.372Z,9.25
2019-03-13T11:18:37.165Z,9.17
2019-03-13T11:21:09.678Z,8.94
2019-03-13T11:23:41.220Z,9.15
2019-03-13T11:26:14.231Z,9.00
2019-03-13T11:28:47.251Z,9.01
2019-03-13T11:31:20.411Z,9.14
2019-03-13T11:33:53.150Z,9.14
2019-03-13T11:36:26.542Z,8.97
2019-03-13T11:38:59.364Z,8.80
2019-03-13T11:41:32.256Z,8.69
2019-03-13T11:44:05.937Z,8.60
2019-03-13T11:46:38.742Z,8.70
2019-03-13T11:49:11.188Z,9.11
2019-03-13T11:51:43.903Z,9.26
2019-03-13T11:54:16.947Z,9.29
2019-03-13T11:56:49.964Z,9.00
2019-03-13T11:59:22.629Z,8.91
2019-03-13T12:01:56.405Z,9.24
2019-03-13T12:04:29.917Z,9.62
2019-03-13T12:07:03.010Z,9.80
2019-03-13T12:09:35.604Z,9.92
2019-03-13T12:12:08.029Z,9.97
2019-03-13T12:14:41.113Z,10.07
2019-03-13T12:17:14.223Z,9.77
2019-03-13T12:19:46.863Z,9.92
2019-03-13T12:22:19.432Z,10.00
2019-03-13T12:24:50.270Z,10.19
2019-03-13T12:27:22.830Z,10.22
2019-03-13T12:29:55.892Z,10.08
2019-03-13T12:32:29.007Z,9.76
2019-03-13T12:35:02.598Z,9.95
2019-03-13T12:37:35.866Z,10.03
2019-03-13T12:40:11.582Z,10.25
2019-03-13T12:42:44.573Z,10.37
2019-03-13T12:45:17.660Z,10.64
2019-03-13T12:47:50.573Z,10.82
2019-03-13T12:50:22.723Z,10.69
2019-03-13T12:52:54.822Z,10.55
2019-03-13T12:55:26.881Z,10.58
2019-03-13T12:57:57.017Z,10.60
2019-03-13T13:00:29.059Z,10.62
2019-03-13T13:03:01.093Z,10.81
2019-03-13T13:05:33.226Z,10.67
2019-03-13T13:08:05.253Z,10.83
2019-03-13T13:10:37.452Z,10.86
2019-03-13T13:13:09.542Z,10.83
2019-03-13T13:15:41.614Z,10.76
2019-03-13T13:18:13.633Z,10.72
2019-03-13T13:20:44.124Z,10.73
2019-03-13T13:23:14.566Z,10.79
2019-03-13T13:25:45.008Z,10.79
2019-03-13T13:28:15.441Z,10.35
2019-03-13T13:30:45.955Z,10.10
2019-03-13T13:33:18.091Z,10.31
2019-03-13T13:35:48.465Z,10.43
2019-03-13T13:38:18.886Z,10.44
2019-03-13T13:40:49.329Z,10.50
2019-03-13T13:43:19.728Z,10.33
2019-03-13T13:45:53.481Z,10.23
2019-03-13T13:48:23.936Z,10.17
2019-03-13T13:50:54.417Z,10.18
2019-03-13T13:53:31.214Z,10.07
2019-03-13T13:56:03.490Z,9.94
2019-03-13T13:58:34.086Z,10.05
2019-03-13T14:01:04.584Z,10.08
2019-03-13T14:03:34.989Z,10.18
2019-03-13T14:06:05.482Z,10.20
2019-03-13T14:08:35.851Z,10.37
2019-03-13T14:11:06.390Z,10.50
2019-03-13T14:13:36.749Z,10.31
2019-03-13T14:16:07.269Z,10.22
2019-03-13T14:18:37.636Z,10.33
2019-03-13T14:21:08.110Z,10.46
2019-03-13T14:23:38.559Z,10.64
2019-03-13T14:26:10.088Z,10.82
2019-03-13T14:28:40.602Z,10.98
2019-03-13T14:31:11.041Z,11.13
2019-03-13T14:33:41.512Z,11.20
2019-03-13T14:36:11.991Z,11.08
2019-03-13T14:38:43.387Z,10.86
2019-03-13T14:41:14.227Z,10.76
2019-03-13T14:43:45.706Z,10.81
2019-03-13T14:46:17.647Z,10.70
2019-03-13T14:48:49.074Z,10.69
2019-03-13T14:51:20.366Z,10.46
2019-03-13T14:53:51.022Z,10.41
2019-03-13T14:56:22.247Z,10.41
2019-03-13T14:58:53.446Z,10.59
2019-03-13T15:01:25.767Z,10.69
2019-03-13T15:03:57.277Z,10.80
2019-03-13T15:06:29.326Z,10.78
2019-03-13T15:09:00.037Z,10.92
2019-03-13T15:11:30.444Z,10.87
2019-03-13T15:14:01.011Z,10.67
2019-03-13T15:16:39.481Z,10.54
2019-03-13T15:19:10.087Z,10.40
2019-03-13T15:21:40.664Z,10.37
2019-03-13T15:24:11.286Z,10.22
2019-03-13T15:26:41.735Z,10.08
2019-03-13T15:29:12.109Z,10.01
2019-03-13T15:31:42.498Z,9.93
2019-03-13T15:34:13.049Z,9.88
2019-03-13T15:36:43.557Z,9.86
2019-03-13T15:39:14.014Z,9.85
2019-03-13T15:41:44.454Z,9.81
2019-03-13T15:44:14.953Z,9.79
2019-03-13T15:46:45.332Z,9.78
2019-03-13T15:49:15.704Z,9.76
2019-03-13T15:51:46.438Z,9.75
2019-03-13T15:54:16.920Z,9.75
2019-03-13T15:56:47.358Z,9.72
2019-03-13T15:59:17.876Z,9.71
2019-03-13T16:01:48.333Z,9.62
2019-03-13T16:04:18.796Z,9.61
2019-03-13T16:06:50.970Z,9.56
2019-03-13T16:09:22.128Z,9.56
2019-03-13T16:11:52.653Z,9.49
2019-03-13T16:14:23.091Z,9.49
2019-03-13T16:16:53.491Z,9.49
2019-03-13T16:19:24.925Z,9.43
2019-03-13T16:21:55.507Z,9.39
2019-03-13T16:24:26.233Z,9.41
2019-03-13T16:26:56.645Z,9.41
2019-03-13T16:29:31.034Z,9.41
2019-03-13T16:32:03.338Z,9.38
2019-03-13T16:34:35.298Z,9.38
2019-03-13T16:37:06.187Z,9.38
2019-03-13T16:39:37.057Z,9.36
2019-03-13T16:42:07.787Z,9.35
2019-03-13T16:44:39.378Z,9.34
2019-03-13T16:47:10.608Z,9.28
2019-03-13T16:49:41.715Z,9.21
2019-03-13T16:52:12.346Z,9.18
2019-03-13T16:54:42.987Z,9.15
2019-03-13T16:57:14.087Z,9.09
2019-03-13T16:59:45.629Z,9.05
2019-03-13T17:02:16.159Z,9.02
2019-03-13T17:04:47.683Z,8.98
2019-03-13T17:07:18.207Z,8.99
2019-03-13T17:09:48.669Z,8.93
2019-03-13T17:12:19.186Z,8.89
2019-03-13T17:14:52.811Z,8.88
2019-03-13T17:17:23.698Z,8.83
2019-03-13T17:19:54.886Z,8.82
2019-03-13T17:22:26.165Z,8.77
2019-03-13T17:24:57.100Z,8.69
2019-03-13T17:27:28.228Z,8.72
2019-03-13T17:29:59.108Z,8.70
2019-03-13T17:32:30.305Z,8.66
2019-03-13T17:35:01.166Z,8.66
2019-03-13T17:37:40.349Z,8.62
2019-03-13T17:40:15.466Z,8.63
2019-03-13T17:42:45.977Z,8.61
2019-03-13T17:45:18.716Z,8.61
2019-03-13T17:47:49.469Z,8.60
2019-03-13T17:50:22.436Z,8.57
2019-03-13T17:52:55.907Z,8.58
2019-03-13T17:55:27.328Z,8.58
2019-03-13T17:57:57.806Z,8.60
2019-03-13T18:00:32.022Z,8.64
2019-03-13T18:03:02.583Z,8.66
2019-03-13T18:05:33.946Z,8.65
2019-03-13T18:08:05.631Z,8.67
2019-03-13T18:10:36.192Z,8.66
2019-03-13T18:13:06.696Z,8.63
2019-03-13T18:15:37.278Z,8.64
2019-03-13T18:18:07.817Z,8.59
2019-03-13T18:20:38.505Z,8.56
2019-03-13T18:23:09.127Z,8.53
2019-03-13T18:25:40.502Z,8.48
2019-03-13T18:28:11.279Z,8.46
2019-03-13T18:30:43.123Z,8.44
2019-03-13T18:33:16.044Z,8.41
2019-03-13T18:35:47.526Z,8.41
2019-03-13T18:38:18.643Z,8.39
2019-03-13T18:40:58.920Z,8.35
2019-03-13T18:43:37.493Z,8.34
2019-03-13T18:46:10.642Z,8.32
2019-03-13T18:48:42.584Z,8.29
2019-03-13T18:51:14.143Z,8.24
2019-03-13T18:53:46.163Z,8.25
2019-03-13T18:56:24.743Z,8.24
2019-03-13T18:58:56.202Z,8.25
2019-03-13T19:01:27.913Z,8.18
2019-03-13T19:04:04.800Z,8.19
2019-03-13T19:06:38.401Z,8.18
2019-03-13T19:09:10.374Z,8.12
2019-03-13T19:11:44.142Z,8.17
2019-03-13T19:14:15.141Z,8.10
2019-03-13T19:16:46.349Z,8.13
2019-03-13T19:19:18.081Z,8.12
2019-03-13T19:21:49.983Z,8.12
2019-03-13T19:24:21.023Z,8.11
2019-03-13T19:26:53.731Z,8.08
2019-03-13T19:29:24.102Z,8.09
2019-03-13T19:31:54.587Z,8.08
2019-03-13T19:34:25.302Z,8.10
2019-03-13T19:36:55.810Z,8.07
2019-03-13T19:39:26.444Z,8.06
2019-03-13T19:41:57.145Z,8.02
2019-03-13T19:44:28.483Z,8.00
2019-03-13T19:46:59.125Z,7.97
2019-03-13T19:49:29.589Z,7.97
2019-03-13T19:52:00.082Z,7.96
2019-03-13T19:54:31.583Z,7.97
2019-03-13T19:57:02.787Z,7.94
2019-03-13T19:59:36.923Z,7.94
2019-03-13T20:02:10.094Z,7.95
2019-03-13T20:04:47.414Z,7.95
2019-03-13T20:07:14.201Z,7.94
2019-03-13T20:09:45.263Z,7.91
2019-03-13T20:12:27.151Z,7.90
2019-03-13T20:14:59.851Z,7.92
2019-03-13T20:17:31.504Z,7.90
2019-03-13T20:20:02.300Z,7.91
2019-03-13T20:22:33.920Z,7.88
2019-03-13T20:25:07.822Z,7.87
2019-03-13T20:27:39.352Z,7.86
2019-03-13T20:30:17.525Z,7.88
2019-03-13T20:32:48.098Z,7.86
2019-03-13T20:35:18.537Z,7.87
2019-03-13T20:37:50.485Z,7.90
2019-03-13T20:40:24.025Z,7.90
2019-03-13T20:45:52.440Z,7.87
2019-03-13T20:48:24.758Z,7.88
2019-03-13T20:50:56.934Z,7.89
2019-03-13T20:53:28.696Z,7.89
2019-03-13T20:55:59.750Z,7.85
2019-03-13T20:58:32.907Z,7.84
2019-03-13T21:01:05.426Z,7.86
2019-03-13T21:03:37.016Z,7.85
2019-03-13T21:06:07.786Z,7.85
2019-03-13T21:08:39.154Z,7.82
2019-03-13T21:11:11.342Z,7.79
2019-03-13T21:13:43.762Z,7.79
2019-03-13T21:16:15.042Z,7.81
2019-03-13T21:18:46.510Z,7.78
2019-03-13T21:21:17.992Z,7.79
2019-03-13T21:23:49.547Z,7.81
2019-03-13T21:26:24.610Z,7.78
2019-03-13T21:28:56.852Z,7.74
2019-03-13T21:31:28.617Z,7.74
2019-03-13T21:34:00.558Z,7.74
2019-03-13T21:36:32.747Z,7.69
2019-03-13T21:39:05.508Z,7.71
2019-03-13T21:41:39.548Z,7.66
2019-03-13T21:44:11.035Z,7.68
2019-03-13T21:46:42.452Z,7.69
2019-03-13T21:49:14.526Z,7.67
2019-03-13T21:51:46.220Z,7.68
2019-03-13T21:54:17.547Z,7.63
2019-03-13T21:56:50.049Z,7.66
2019-03-13T21:59:22.229Z,7.66
2019-03-13T22:01:52.973Z,7.65
2019-03-13T22:04:25.176Z,7.63
2019-03-13T22:06:57.830Z,7.64
2019-03-13T22:09:29.384Z,7.63
2019-03-13T22:12:00.867Z,7.62
2019-03-13T22:14:33.024Z,7.63
2019-03-13T22:17:03.918Z,7.67
2019-03-13T22:19:34.865Z,7.62
2019-03-13T22:22:06.301Z,7.66
2019-03-13T22:24:37.463Z,7.66
2019-03-13T22:27:09.362Z,7.69
2019-03-13T22:29:40.582Z,7.72
2019-03-13T22:32:13.410Z,7.76
2019-03-13T22:34:46.503Z,7.75
2019-03-13T22:37:17.637Z,7.76
2019-03-13T22:39:50.185Z,7.77
2019-03-13T22:42:21.812Z,7.76
2019-03-13T22:44:53.331Z,7.73
2019-03-13T22:47:24.984Z,7.75
2019-03-13T22:49:57.142Z,7.72
2019-03-13T22:52:28.862Z,7.71
2019-03-13T22:55:00.891Z,7.71
2019-03-13T22:57:32.061Z,7.72
2019-03-13T23:00:02.971Z,7.68
2019-03-13T23:02:34.532Z,7.71
2019-03-13T23:05:06.124Z,7.70
2019-03-13T23:07:37.862Z,7.71
2019-03-13T23:10:12.204Z,7.69
2019-03-13T23:12:45.102Z,7.67
2019-03-13T23:15:16.442Z,7.66
2019-03-13T23:17:47.824Z,7.64
2019-03-13T23:20:20.178Z,7.60
2019-03-13T23:22:51.422Z,7.61
2019-03-13T23:25:22.905Z,7.63
2019-03-13T23:27:55.342Z,7.61
2019-03-13T23:30:27.204Z,7.58
2019-03-13T23:32:58.449Z,7.57
2019-03-13T23:35:29.897Z,7.52
2019-03-13T23:38:02.666Z,7.55
2019-03-13T23:40:34.052Z,7.49
2019-03-13T23:43:05.686Z,7.52
2019-03-13T23:45:37.272Z,7.50
2019-03-13T23:48:09.908Z,7.49
2019-03-13T23:50:42.284Z,7.51
2019-03-13T23:53:13.210Z,7.50
2019-03-13T23:55:44.464Z,7.49
2019-03-13T23:58:15.784Z,7.48
